sensor_id;sensor_type;location;lat;lon;timestamp;temperature;humidity
13610;DHT22;6876;50.788;4.940;2023-03-14T00:00:22;10.80;99.90
13610;DHT22;6876;50.788;4.940;2023-03-14T00:03:11;10.80;99.90
13610;DHT22;6876;50.788;4.940;2023-03-14T00:06:01;10.90;99.90
13610;DHT22;6876;50.788;4.940;2023-03-14T00:08:49;10.90;99.90
13610;DHT22;6876;50.788;4.940;2023-03-14T00:11:37;10.80;99.90
13610;DHT22;6876;50.788;4.940;2023-03-14T00:14:24;10.80;99.90
13610;DHT22;6876;50.788;4.940;2023-03-14T00:17:12;10.70;99.90
13610;DHT22;6876;50.788;4.940;2023-03-14T00:20:01;10.70;99.90
13610;DHT22;6876;50.788;4.940;2023-03-14T00:22:54;10.70;99.90
13610;DHT22;6876;50.788;4.940;2023-03-14T00:25:41;10.70;99.90
13610;DHT22;6876;50.788;4.940;2023-03-14T00:28:28;10.70;99.90
13610;DHT22;6876;50.788;4.940;2023-03-14T00:31:16;10.70;99.90
13610;DHT22;6876;50.788;4.940;2023-03-14T00:34:03;10.60;99.90
13610;DHT22;6876;50.788;4.940;2023-03-14T00:36:52;10.60;99.90
13610;DHT22;6876;50.788;4.940;2023-03-14T00:39:39;10.70;99.90
13610;DHT22;6876;50.788;4.940;2023-03-14T00:42:27;10.70;99.90
13610;DHT22;6876;50.788;4.940;2023-03-14T00:45:14;10.70;99.90
13610;DHT22;6876;50.788;4.940;2023-03-14T00:48:01;10.70;99.90
13610;DHT22;6876;50.788;4.940;2023-03-14T00:50:49;10.70;99.90
13610;DHT22;6876;50.788;4.940;2023-03-14T00:53:38;10.70;99.90
13610;DHT22;6876;50.788;4.940;2023-03-14T00:56:26;10.60;99.90
13610;DHT22;6876;50.788;4.940;2023-03-14T00:59:13;10.70;99.90
13610;DHT22;6876;50.788;4.940;2023-03-14T01:02:00;10.60;99.90
13610;DHT22;6876;50.788;4.940;2023-03-14T01:04:48;10.60;99.90
13610;DHT22;6876;50.788;4.940;2023-03-14T01:07:36;10.60;99.90
13610;DHT22;6876;50.788;4.940;2023-03-14T01:10:24;10.50;99.90
13610;DHT22;6876;50.788;4.940;2023-03-14T01:13:12;10.50;99.90
13610;DHT22;6876;50.788;4.940;2023-03-14T01:16:02;10.40;99.90
13610;DHT22;6876;50.788;4.940;2023-03-14T01:18:50;10.40;99.90
13610;DHT22;6876;50.788;4.940;2023-03-14T01:21:38;10.50;99.90
13610;DHT22;6876;50.788;4.940;2023-03-14T01:24:25;10.50;99.90
13610;DHT22;6876;50.788;4.940;2023-03-14T01:27:14;10.50;99.90
13610;DHT22;6876;50.788;4.940;2023-03-14T01:30:01;10.60;99.90
13610;DHT22;6876;50.788;4.940;2023-03-14T01:32:49;10.60;99.90
13610;DHT22;6876;50.788;4.940;2023-03-14T01:35:36;10.70;99.90
13610;DHT22;6876;50.788;4.940;2023-03-14T01:38:24;10.70;99.90
13610;DHT22;6876;50.788;4.940;2023-03-14T01:41:14;10.70;99.90
13610;DHT22;6876;50.788;4.940;2023-03-14T01:44:03;10.80;99.90
13610;DHT22;6876;50.788;4.940;2023-03-14T01:46:50;10.70;99.90
13610;DHT22;6876;50.788;4.940;2023-03-14T01:49:38;10.70;99.90
13610;DHT22;6876;50.788;4.940;2023-03-14T01:52:27;10.80;99.90
13610;DHT22;6876;50.788;4.940;2023-03-14T01:55:17;10.70;99.90
13610;DHT22;6876;50.788;4.940;2023-03-14T01:58:05;10.60;99.90
13610;DHT22;6876;50.788;4.940;2023-03-14T02:00:55;10.50;99.90
13610;DHT22;6876;50.788;4.940;2023-03-14T02:03:47;10.40;99.90
13610;DHT22;6876;50.788;4.940;2023-03-14T02:06:47;10.30;99.90
13610;DHT22;6876;50.788;4.940;2023-03-14T02:09:36;10.30;99.90
13610;DHT22;6876;50.788;4.940;2023-03-14T02:12:25;10.30;99.90
13610;DHT22;6876;50.788;4.940;2023-03-14T02:15:13;10.20;99.90
13610;DHT22;6876;50.788;4.940;2023-03-14T02:18:02;10.10;99.90
13610;DHT22;6876;50.788;4.940;2023-03-14T02:20:55;10.10;99.90
13610;DHT22;6876;50.788;4.940;2023-03-14T02:23:50;10.10;99.90
13610;DHT22;6876;50.788;4.940;2023-03-14T02:26:44;10.00;99.90
13610;DHT22;6876;50.788;4.940;2023-03-14T02:29:36;10.10;99.90
13610;DHT22;6876;50.788;4.940;2023-03-14T02:32:26;10.10;99.90
13610;DHT22;6876;50.788;4.940;2023-03-14T02:35:16;10.00;99.90
13610;DHT22;6876;50.788;4.940;2023-03-14T02:38:10;9.90;99.90
13610;DHT22;6876;50.788;4.940;2023-03-14T02:41:02;9.90;99.90
13610;DHT22;6876;50.788;4.940;2023-03-14T02:43:49;9.80;99.90
13610;DHT22;6876;50.788;4.940;2023-03-14T02:46:38;9.80;99.90
13610;DHT22;6876;50.788;4.940;2023-03-14T02:49:27;9.80;99.90
13610;DHT22;6876;50.788;4.940;2023-03-14T02:52:17;9.70;99.90
13610;DHT22;6876;50.788;4.940;2023-03-14T02:55:06;9.70;99.90
13610;DHT22;6876;50.788;4.940;2023-03-14T02:57:53;9.80;99.90
13610;DHT22;6876;50.788;4.940;2023-03-14T03:00:40;9.80;99.90
13610;DHT22;6876;50.788;4.940;2023-03-14T03:03:29;9.80;99.90
13610;DHT22;6876;50.788;4.940;2023-03-14T03:06:16;9.80;99.90
13610;DHT22;6876;50.788;4.940;2023-03-14T03:09:04;9.80;99.90
13610;DHT22;6876;50.788;4.940;2023-03-14T03:11:51;9.80;99.90
13610;DHT22;6876;50.788;4.940;2023-03-14T03:14:38;9.70;99.90
13610;DHT22;6876;50.788;4.940;2023-03-14T03:17:26;9.80;99.90
13610;DHT22;6876;50.788;4.940;2023-03-14T03:20:15;9.80;99.90
13610;DHT22;6876;50.788;4.940;2023-03-14T03:23:02;9.80;99.90
13610;DHT22;6876;50.788;4.940;2023-03-14T03:25:50;9.90;99.90
13610;DHT22;6876;50.788;4.940;2023-03-14T03:28:38;9.90;99.90
13610;DHT22;6876;50.788;4.940;2023-03-14T03:31:25;9.80;99.90
13610;DHT22;6876;50.788;4.940;2023-03-14T03:34:12;9.90;99.90
13610;DHT22;6876;50.788;4.940;2023-03-14T03:37:01;9.90;99.90
13610;DHT22;6876;50.788;4.940;2023-03-14T03:39:50;10.00;99.90
13610;DHT22;6876;50.788;4.940;2023-03-14T03:42:37;10.00;99.90
13610;DHT22;6876;50.788;4.940;2023-03-14T03:45:24;10.00;99.90
13610;DHT22;6876;50.788;4.940;2023-03-14T03:48:12;9.90;99.90
13610;DHT22;6876;50.788;4.940;2023-03-14T03:50:59;9.90;99.90
13610;DHT22;6876;50.788;4.940;2023-03-14T03:53:48;9.90;99.90
13610;DHT22;6876;50.788;4.940;2023-03-14T03:56:35;9.80;99.90
13610;DHT22;6876;50.788;4.940;2023-03-14T03:59:22;9.80;99.90
13610;DHT22;6876;50.788;4.940;2023-03-14T04:02:09;9.80;99.90
13610;DHT22;6876;50.788;4.940;2023-03-14T04:04:57;9.90;99.90
13610;DHT22;6876;50.788;4.940;2023-03-14T04:07:44;9.90;99.90
13610;DHT22;6876;50.788;4.940;2023-03-14T04:10:35;9.90;99.90
13610;DHT22;6876;50.788;4.940;2023-03-14T04:13:22;9.90;99.90
13610;DHT22;6876;50.788;4.940;2023-03-14T04:16:15;9.90;99.90
13610;DHT22;6876;50.788;4.940;2023-03-14T04:19:03;9.90;99.90
13610;DHT22;6876;50.788;4.940;2023-03-14T04:21:50;9.90;99.90
13610;DHT22;6876;50.788;4.940;2023-03-14T04:24:37;9.80;99.90
13610;DHT22;6876;50.788;4.940;2023-03-14T04:27:26;9.70;99.90
13610;DHT22;6876;50.788;4.940;2023-03-14T04:30:13;9.70;99.90
13610;DHT22;6876;50.788;4.940;2023-03-14T04:33:01;9.70;99.90
13610;DHT22;6876;50.788;4.940;2023-03-14T04:35:48;9.70;99.90
13610;DHT22;6876;50.788;4.940;2023-03-14T04:38:36;9.60;99.90
13610;DHT22;6876;50.788;4.940;2023-03-14T04:41:23;9.70;99.90
13610;DHT22;6876;50.788;4.940;2023-03-14T04:44:12;9.70;99.90
13610;DHT22;6876;50.788;4.940;2023-03-14T04:46:59;9.70;99.90
13610;DHT22;6876;50.788;4.940;2023-03-14T04:49:47;9.60;99.90
13610;DHT22;6876;50.788;4.940;2023-03-14T04:52:34;9.60;99.90
13610;DHT22;6876;50.788;4.940;2023-03-14T04:55:21;9.60;99.90
13610;DHT22;6876;50.788;4.940;2023-03-14T04:58:09;9.60;99.90
13610;DHT22;6876;50.788;4.940;2023-03-14T05:01:01;9.60;99.90
13610;DHT22;6876;50.788;4.940;2023-03-14T05:03:49;9.60;99.90
13610;DHT22;6876;50.788;4.940;2023-03-14T05:06:36;9.70;99.90
13610;DHT22;6876;50.788;4.940;2023-03-14T05:09:23;9.70;99.90
13610;DHT22;6876;50.788;4.940;2023-03-14T05:12:10;9.70;99.90
13610;DHT22;6876;50.788;4.940;2023-03-14T05:14:58;9.80;99.90
13610;DHT22;6876;50.788;4.940;2023-03-14T05:17:46;9.80;99.90
13610;DHT22;6876;50.788;4.940;2023-03-14T05:20:35;9.90;99.90
13610;DHT22;6876;50.788;4.940;2023-03-14T05:23:22;9.90;99.90
13610;DHT22;6876;50.788;4.940;2023-03-14T05:26:09;9.90;99.90
13610;DHT22;6876;50.788;4.940;2023-03-14T05:28:57;9.90;99.90
13610;DHT22;6876;50.788;4.940;2023-03-14T05:31:44;9.90;99.90
13610;DHT22;6876;50.788;4.940;2023-03-14T05:34:33;9.90;99.90
13610;DHT22;6876;50.788;4.940;2023-03-14T05:37:20;9.90;99.90
13610;DHT22;6876;50.788;4.940;2023-03-14T05:40:09;9.90;99.90
13610;DHT22;6876;50.788;4.940;2023-03-14T05:42:56;9.90;99.90
13610;DHT22;6876;50.788;4.940;2023-03-14T05:45:43;9.90;99.90
13610;DHT22;6876;50.788;4.940;2023-03-14T05:48:31;9.90;99.90
13610;DHT22;6876;50.788;4.940;2023-03-14T05:51:21;9.90;99.90
13610;DHT22;6876;50.788;4.940;2023-03-14T05:54:08;10.00;99.90
13610;DHT22;6876;50.788;4.940;2023-03-14T05:56:56;10.10;99.90
13610;DHT22;6876;50.788;4.940;2023-03-14T05:59:43;10.10;99.90
13610;DHT22;6876;50.788;4.940;2023-03-14T06:02:30;10.10;99.90
13610;DHT22;6876;50.788;4.940;2023-03-14T06:05:18;10.10;99.90
13610;DHT22;6876;50.788;4.940;2023-03-14T06:08:06;10.20;99.90
13610;DHT22;6876;50.788;4.940;2023-03-14T06:10:54;10.20;99.90
13610;DHT22;6876;50.788;4.940;2023-03-14T06:13:41;10.20;99.90
13610;DHT22;6876;50.788;4.940;2023-03-14T06:16:28;10.20;99.90
13610;DHT22;6876;50.788;4.940;2023-03-14T06:19:18;10.20;99.90
13610;DHT22;6876;50.788;4.940;2023-03-14T06:22:05;10.30;99.90
13610;DHT22;6876;50.788;4.940;2023-03-14T06:24:54;10.30;99.90
13610;DHT22;6876;50.788;4.940;2023-03-14T06:27:41;10.30;99.90
13610;DHT22;6876;50.788;4.940;2023-03-14T06:30:29;10.30;99.90
13610;DHT22;6876;50.788;4.940;2023-03-14T06:33:16;10.40;99.90
13610;DHT22;6876;50.788;4.940;2023-03-14T06:36:04;10.40;99.90
13610;DHT22;6876;50.788;4.940;2023-03-14T06:38:51;10.40;99.90
13610;DHT22;6876;50.788;4.940;2023-03-14T06:41:40;10.40;99.90
13610;DHT22;6876;50.788;4.940;2023-03-14T06:44:27;10.40;99.90
13610;DHT22;6876;50.788;4.940;2023-03-14T06:47:15;10.50;99.90
13610;DHT22;6876;50.788;4.940;2023-03-14T06:50:02;10.50;99.90
13610;DHT22;6876;50.788;4.940;2023-03-14T06:52:50;10.50;99.90
13610;DHT22;6876;50.788;4.940;2023-03-14T06:55:37;10.50;99.90
13610;DHT22;6876;50.788;4.940;2023-03-14T06:58:26;10.50;99.90
13610;DHT22;6876;50.788;4.940;2023-03-14T07:01:21;10.40;99.90
13610;DHT22;6876;50.788;4.940;2023-03-14T07:04:11;10.40;99.90
13610;DHT22;6876;50.788;4.940;2023-03-14T07:06:58;10.40;99.90
13610;DHT22;6876;50.788;4.940;2023-03-14T07:09:45;10.30;99.90
13610;DHT22;6876;50.788;4.940;2023-03-14T07:12:32;10.30;99.90
13610;DHT22;6876;50.788;4.940;2023-03-14T07:15:21;10.40;99.90
13610;DHT22;6876;50.788;4.940;2023-03-14T07:18:08;10.40;99.90
13610;DHT22;6876;50.788;4.940;2023-03-14T07:20:56;10.40;99.90
13610;DHT22;6876;50.788;4.940;2023-03-14T07:23:43;10.40;99.90
13610;DHT22;6876;50.788;4.940;2023-03-14T07:26:30;10.40;99.90
13610;DHT22;6876;50.788;4.940;2023-03-14T07:29:18;10.30;99.90
13610;DHT22;6876;50.788;4.940;2023-03-14T07:32:06;10.30;99.90
13610;DHT22;6876;50.788;4.940;2023-03-14T07:34:54;10.20;99.90
13610;DHT22;6876;50.788;4.940;2023-03-14T07:37:42;9.80;99.90
13610;DHT22;6876;50.788;4.940;2023-03-14T07:40:29;9.30;99.90
13610;DHT22;6876;50.788;4.940;2023-03-14T07:43:16;9.00;99.90
13610;DHT22;6876;50.788;4.940;2023-03-14T07:46:04;8.70;99.90
13610;DHT22;6876;50.788;4.940;2023-03-14T07:48:53;8.70;99.90
13610;DHT22;6876;50.788;4.940;2023-03-14T07:51:40;8.60;99.90
13610;DHT22;6876;50.788;4.940;2023-03-14T07:54:29;8.50;99.90
13610;DHT22;6876;50.788;4.940;2023-03-14T07:57:17;8.40;99.90
13610;DHT22;6876;50.788;4.940;2023-03-14T08:00:05;8.20;99.90
13610;DHT22;6876;50.788;4.940;2023-03-14T08:02:53;8.10;99.90
13610;DHT22;6876;50.788;4.940;2023-03-14T08:05:42;8.00;99.90
13610;DHT22;6876;50.788;4.940;2023-03-14T08:08:29;8.00;99.90
13610;DHT22;6876;50.788;4.940;2023-03-14T08:11:16;8.00;99.90
13610;DHT22;6876;50.788;4.940;2023-03-14T08:14:03;8.00;99.90
13610;DHT22;6876;50.788;4.940;2023-03-14T08:16:51;8.10;99.90
13610;DHT22;6876;50.788;4.940;2023-03-14T08:19:39;8.20;99.90
13610;DHT22;6876;50.788;4.940;2023-03-14T08:22:29;8.30;99.90
13610;DHT22;6876;50.788;4.940;2023-03-14T08:25:16;8.50;99.90
13610;DHT22;6876;50.788;4.940;2023-03-14T08:28:04;8.70;99.90
13610;DHT22;6876;50.788;4.940;2023-03-14T08:30:51;8.70;99.90
13610;DHT22;6876;50.788;4.940;2023-03-14T08:33:41;8.70;99.90
13610;DHT22;6876;50.788;4.940;2023-03-14T08:36:29;8.60;99.90
13610;DHT22;6876;50.788;4.940;2023-03-14T08:39:18;8.50;99.90
13610;DHT22;6876;50.788;4.940;2023-03-14T08:42:05;8.50;99.90
13610;DHT22;6876;50.788;4.940;2023-03-14T08:44:53;8.40;99.90
13610;DHT22;6876;50.788;4.940;2023-03-14T08:47:40;8.40;99.90
13610;DHT22;6876;50.788;4.940;2023-03-14T08:50:27;8.30;99.90
13610;DHT22;6876;50.788;4.940;2023-03-14T08:53:15;8.30;99.90
13610;DHT22;6876;50.788;4.940;2023-03-14T08:56:04;8.40;99.90
13610;DHT22;6876;50.788;4.940;2023-03-14T08:58:52;8.30;99.90
13610;DHT22;6876;50.788;4.940;2023-03-14T09:01:39;8.30;99.90
13610;DHT22;6876;50.788;4.940;2023-03-14T09:04:26;8.40;99.90
13610;DHT22;6876;50.788;4.940;2023-03-14T09:07:14;8.30;99.90
13610;DHT22;6876;50.788;4.940;2023-03-14T09:10:01;8.30;99.90
13610;DHT22;6876;50.788;4.940;2023-03-14T09:12:50;8.20;99.90
13610;DHT22;6876;50.788;4.940;2023-03-14T09:15:37;8.20;99.90
13610;DHT22;6876;50.788;4.940;2023-03-14T09:18:24;8.20;99.90
13610;DHT22;6876;50.788;4.940;2023-03-14T09:21:12;8.10;99.90
13610;DHT22;6876;50.788;4.940;2023-03-14T09:24:00;8.30;99.90
13610;DHT22;6876;50.788;4.940;2023-03-14T09:26:47;8.20;99.90
13610;DHT22;6876;50.788;4.940;2023-03-14T09:29:36;8.30;99.90
13610;DHT22;6876;50.788;4.940;2023-03-14T09:32:23;8.20;99.90
13610;DHT22;6876;50.788;4.940;2023-03-14T09:35:11;8.20;99.90
13610;DHT22;6876;50.788;4.940;2023-03-14T09:37:58;8.40;99.90
13610;DHT22;6876;50.788;4.940;2023-03-14T09:40:45;8.30;99.90
13610;DHT22;6876;50.788;4.940;2023-03-14T09:43:34;8.40;99.90
13610;DHT22;6876;50.788;4.940;2023-03-14T09:46:24;8.50;99.90
13610;DHT22;6876;50.788;4.940;2023-03-14T09:49:17;8.40;99.90
13610;DHT22;6876;50.788;4.940;2023-03-14T09:52:12;8.40;99.90
13610;DHT22;6876;50.788;4.940;2023-03-14T09:55:03;8.20;99.90
13610;DHT22;6876;50.788;4.940;2023-03-14T09:57:55;8.10;99.90
13610;DHT22;6876;50.788;4.940;2023-03-14T10:00:44;7.90;99.90
13610;DHT22;6876;50.788;4.940;2023-03-14T10:03:33;7.80;99.90
13610;DHT22;6876;50.788;4.940;2023-03-14T10:06:22;7.60;99.90
13610;DHT22;6876;50.788;4.940;2023-03-14T10:09:13;7.60;99.90
13610;DHT22;6876;50.788;4.940;2023-03-14T10:12:02;7.50;99.90
13610;DHT22;6876;50.788;4.940;2023-03-14T10:14:52;7.50;99.90
13610;DHT22;6876;50.788;4.940;2023-03-14T10:17:42;7.60;99.90
13610;DHT22;6876;50.788;4.940;2023-03-14T10:20:33;7.60;99.90
13610;DHT22;6876;50.788;4.940;2023-03-14T10:23:24;7.50;99.90
13610;DHT22;6876;50.788;4.940;2023-03-14T10:26:15;7.50;99.90
13610;DHT22;6876;50.788;4.940;2023-03-14T10:29:04;7.70;99.90
13610;DHT22;6876;50.788;4.940;2023-03-14T10:31:58;7.80;99.90
13610;DHT22;6876;50.788;4.940;2023-03-14T10:35:04;7.90;99.90
13610;DHT22;6876;50.788;4.940;2023-03-14T10:37:56;8.40;99.90
13610;DHT22;6876;50.788;4.940;2023-03-14T10:40:47;8.70;99.90
13610;DHT22;6876;50.788;4.940;2023-03-14T10:43:37;8.90;99.90
13610;DHT22;6876;50.788;4.940;2023-03-14T10:46:26;8.80;99.90
13610;DHT22;6876;50.788;4.940;2023-03-14T10:49:26;8.40;99.90
13610;DHT22;6876;50.788;4.940;2023-03-14T10:52:20;8.20;99.90
13610;DHT22;6876;50.788;4.940;2023-03-14T10:55:11;7.90;99.90
13610;DHT22;6876;50.788;4.940;2023-03-14T10:57:59;7.90;99.90
13610;DHT22;6876;50.788;4.940;2023-03-14T11:00:50;7.80;99.90
13610;DHT22;6876;50.788;4.940;2023-03-14T11:03:41;7.70;99.90
13610;DHT22;6876;50.788;4.940;2023-03-14T11:06:36;7.50;99.90
13610;DHT22;6876;50.788;4.940;2023-03-14T11:09:31;7.40;99.90
13610;DHT22;6876;50.788;4.940;2023-03-14T11:12:35;7.40;99.90
13610;DHT22;6876;50.788;4.940;2023-03-14T11:15:30;7.30;99.90
13610;DHT22;6876;50.788;4.940;2023-03-14T11:18:43;7.40;99.90
13610;DHT22;6876;50.788;4.940;2023-03-14T11:21:41;7.40;99.90
13610;DHT22;6876;50.788;4.940;2023-03-14T11:27:43;7.50;99.90
13610;DHT22;6876;50.788;4.940;2023-03-14T11:30:35;7.50;99.90
13610;DHT22;6876;50.788;4.940;2023-03-14T11:33:33;7.60;99.90
13610;DHT22;6876;50.788;4.940;2023-03-14T11:36:28;7.70;99.90
13610;DHT22;6876;50.788;4.940;2023-03-14T11:39:19;7.60;99.90
13610;DHT22;6876;50.788;4.940;2023-03-14T11:42:11;7.40;99.90
13610;DHT22;6876;50.788;4.940;2023-03-14T11:45:02;7.10;99.90
13610;DHT22;6876;50.788;4.940;2023-03-14T11:48:05;7.10;99.90
13610;DHT22;6876;50.788;4.940;2023-03-14T11:50:55;7.20;99.90
13610;DHT22;6876;50.788;4.940;2023-03-14T11:53:50;7.00;99.90
13610;DHT22;6876;50.788;4.940;2023-03-14T11:56:46;6.90;99.90
13610;DHT22;6876;50.788;4.940;2023-03-14T11:59:45;6.80;99.90
13610;DHT22;6876;50.788;4.940;2023-03-14T12:02:43;6.80;99.90
13610;DHT22;6876;50.788;4.940;2023-03-14T12:05:43;7.00;99.90
13610;DHT22;6876;50.788;4.940;2023-03-14T12:08:39;7.30;99.90
13610;DHT22;6876;50.788;4.940;2023-03-14T12:11:34;7.50;99.90
13610;DHT22;6876;50.788;4.940;2023-03-14T12:14:25;7.80;99.90
13610;DHT22;6876;50.788;4.940;2023-03-14T12:17:20;8.00;99.90
13610;DHT22;6876;50.788;4.940;2023-03-14T12:20:17;8.10;99.90
13610;DHT22;6876;50.788;4.940;2023-03-14T12:23:05;8.30;99.90
13610;DHT22;6876;50.788;4.940;2023-03-14T12:26:13;8.30;99.90
13610;DHT22;6876;50.788;4.940;2023-03-14T12:29:14;8.40;99.90
13610;DHT22;6876;50.788;4.940;2023-03-14T12:32:20;8.20;99.90
13610;DHT22;6876;50.788;4.940;2023-03-14T12:35:34;8.20;99.90
13610;DHT22;6876;50.788;4.940;2023-03-14T12:38:27;8.10;99.90
13610;DHT22;6876;50.788;4.940;2023-03-14T12:41:20;8.10;99.90
13610;DHT22;6876;50.788;4.940;2023-03-14T12:44:45;7.90;99.90
13610;DHT22;6876;50.788;4.940;2023-03-14T12:47:52;8.00;99.90
13610;DHT22;6876;50.788;4.940;2023-03-14T12:50:46;7.90;99.90
13610;DHT22;6876;50.788;4.940;2023-03-14T12:53:55;7.60;99.90
13610;DHT22;6876;50.788;4.940;2023-03-14T12:57:03;7.50;99.90
13610;DHT22;6876;50.788;4.940;2023-03-14T12:59:55;7.30;99.90
13610;DHT22;6876;50.788;4.940;2023-03-14T13:02:43;7.20;99.90
13610;DHT22;6876;50.788;4.940;2023-03-14T13:05:31;7.10;99.90
13610;DHT22;6876;50.788;4.940;2023-03-14T13:08:35;7.10;99.90
13610;DHT22;6876;50.788;4.940;2023-03-14T13:11:23;7.00;99.90
13610;DHT22;6876;50.788;4.940;2023-03-14T13:14:10;6.90;99.90
13610;DHT22;6876;50.788;4.940;2023-03-14T13:16:59;6.80;99.90
13610;DHT22;6876;50.788;4.940;2023-03-14T13:19:51;6.80;99.90
13610;DHT22;6876;50.788;4.940;2023-03-14T13:22:46;6.60;99.90
13610;DHT22;6876;50.788;4.940;2023-03-14T13:25:35;6.70;99.90
13610;DHT22;6876;50.788;4.940;2023-03-14T13:28:23;6.70;99.90
13610;DHT22;6876;50.788;4.940;2023-03-14T13:31:20;6.60;99.90
13610;DHT22;6876;50.788;4.940;2023-03-14T13:34:10;6.40;99.90
13610;DHT22;6876;50.788;4.940;2023-03-14T13:36:58;6.40;99.90
13610;DHT22;6876;50.788;4.940;2023-03-14T13:39:49;6.40;99.90
13610;DHT22;6876;50.788;4.940;2023-03-14T13:42:38;6.60;99.90
13610;DHT22;6876;50.788;4.940;2023-03-14T13:45:25;6.60;99.90
13610;DHT22;6876;50.788;4.940;2023-03-14T13:48:13;6.70;99.90
13610;DHT22;6876;50.788;4.940;2023-03-14T13:51:04;6.70;99.90
13610;DHT22;6876;50.788;4.940;2023-03-14T13:53:53;6.70;99.90
13610;DHT22;6876;50.788;4.940;2023-03-14T13:56:41;6.70;99.90
13610;DHT22;6876;50.788;4.940;2023-03-14T13:59:30;6.70;99.90
13610;DHT22;6876;50.788;4.940;2023-03-14T14:02:18;6.70;99.90
13610;DHT22;6876;50.788;4.940;2023-03-14T14:05:08;6.40;99.90
13610;DHT22;6876;50.788;4.940;2023-03-14T14:07:57;6.10;99.90
13610;DHT22;6876;50.788;4.940;2023-03-14T14:10:47;5.80;99.90
13610;DHT22;6876;50.788;4.940;2023-03-14T14:13:35;5.70;99.90
13610;DHT22;6876;50.788;4.940;2023-03-14T14:16:25;5.70;99.90
13610;DHT22;6876;50.788;4.940;2023-03-14T14:19:16;5.60;99.90
13610;DHT22;6876;50.788;4.940;2023-03-14T14:22:05;5.60;99.90
13610;DHT22;6876;50.788;4.940;2023-03-14T14:24:53;5.60;99.90
13610;DHT22;6876;50.788;4.940;2023-03-14T14:27:42;5.80;99.90
13610;DHT22;6876;50.788;4.940;2023-03-14T14:30:32;6.00;99.90
13610;DHT22;6876;50.788;4.940;2023-03-14T14:33:21;6.20;99.90
13610;DHT22;6876;50.788;4.940;2023-03-14T14:36:16;6.50;99.90
13610;DHT22;6876;50.788;4.940;2023-03-14T14:39:09;6.60;99.90
13610;DHT22;6876;50.788;4.940;2023-03-14T14:41:58;6.60;99.90
13610;DHT22;6876;50.788;4.940;2023-03-14T14:44:45;6.70;99.90
13610;DHT22;6876;50.788;4.940;2023-03-14T14:47:32;6.60;99.90
13610;DHT22;6876;50.788;4.940;2023-03-14T14:50:29;6.60;99.90
13610;DHT22;6876;50.788;4.940;2023-03-14T14:53:22;6.70;99.90
13610;DHT22;6876;50.788;4.940;2023-03-14T14:56:17;6.80;99.90
13610;DHT22;6876;50.788;4.940;2023-03-14T14:59:06;6.70;99.90
13610;DHT22;6876;50.788;4.940;2023-03-14T15:01:58;6.70;99.90
13610;DHT22;6876;50.788;4.940;2023-03-14T15:04:46;6.70;99.90
13610;DHT22;6876;50.788;4.940;2023-03-14T15:07:35;6.60;99.90
13610;DHT22;6876;50.788;4.940;2023-03-14T15:10:24;6.60;99.90
13610;DHT22;6876;50.788;4.940;2023-03-14T15:13:12;6.50;99.90
13610;DHT22;6876;50.788;4.940;2023-03-14T15:15:59;6.60;99.90
13610;DHT22;6876;50.788;4.940;2023-03-14T15:18:49;6.50;99.90
13610;DHT22;6876;50.788;4.940;2023-03-14T15:21:39;6.60;99.90
13610;DHT22;6876;50.788;4.940;2023-03-14T15:24:27;6.50;99.90
13610;DHT22;6876;50.788;4.940;2023-03-14T15:27:16;6.50;99.90
13610;DHT22;6876;50.788;4.940;2023-03-14T15:30:05;6.40;99.90
13610;DHT22;6876;50.788;4.940;2023-03-14T15:32:52;6.40;99.90
13610;DHT22;6876;50.788;4.940;2023-03-14T15:35:39;6.50;99.90
13610;DHT22;6876;50.788;4.940;2023-03-14T15:38:28;6.40;99.90
13610;DHT22;6876;50.788;4.940;2023-03-14T15:41:16;6.30;99.90
13610;DHT22;6876;50.788;4.940;2023-03-14T15:44:04;6.30;1.00
13610;DHT22;6876;50.788;4.940;2023-03-14T15:46:51;6.20;99.90
13610;DHT22;6876;50.788;4.940;2023-03-14T15:49:39;6.10;1.00
13610;DHT22;6876;50.788;4.940;2023-03-14T15:52:26;6.20;99.90
13610;DHT22;6876;50.788;4.940;2023-03-14T15:55:14;6.20;1.00
13610;DHT22;6876;50.788;4.940;2023-03-14T15:58:02;6.20;1.00
13610;DHT22;6876;50.788;4.940;2023-03-14T16:00:50;6.30;99.90
13610;DHT22;6876;50.788;4.940;2023-03-14T16:03:37;6.30;1.00
13610;DHT22;6876;50.788;4.940;2023-03-14T16:06:25;6.40;99.90
13610;DHT22;6876;50.788;4.940;2023-03-14T16:09:13;6.40;1.00
13610;DHT22;6876;50.788;4.940;2023-03-14T16:12:00;6.40;99.90
13610;DHT22;6876;50.788;4.940;2023-03-14T16:14:51;6.50;99.90
13610;DHT22;6876;50.788;4.940;2023-03-14T16:17:39;6.40;99.90
13610;DHT22;6876;50.788;4.940;2023-03-14T16:20:28;6.40;99.90
13610;DHT22;6876;50.788;4.940;2023-03-14T16:23:16;6.40;99.90
13610;DHT22;6876;50.788;4.940;2023-03-14T16:26:04;6.40;99.90
13610;DHT22;6876;50.788;4.940;2023-03-14T16:28:51;6.50;99.90
13610;DHT22;6876;50.788;4.940;2023-03-14T16:31:41;6.40;99.90
13610;DHT22;6876;50.788;4.940;2023-03-14T16:34:28;6.40;99.90
13610;DHT22;6876;50.788;4.940;2023-03-14T16:37:16;6.30;99.90
13610;DHT22;6876;50.788;4.940;2023-03-14T16:40:07;6.10;99.90
13610;DHT22;6876;50.788;4.940;2023-03-14T16:42:55;6.00;99.90
13610;DHT22;6876;50.788;4.940;2023-03-14T16:45:43;6.00;99.90
13610;DHT22;6876;50.788;4.940;2023-03-14T16:48:31;6.00;99.90
13610;DHT22;6876;50.788;4.940;2023-03-14T16:51:19;5.90;99.90
13610;DHT22;6876;50.788;4.940;2023-03-14T16:54:07;5.80;99.90
13610;DHT22;6876;50.788;4.940;2023-03-14T16:56:54;5.80;99.90
13610;DHT22;6876;50.788;4.940;2023-03-14T16:59:43;5.80;99.90
13610;DHT22;6876;50.788;4.940;2023-03-14T17:02:30;5.80;99.90
13610;DHT22;6876;50.788;4.940;2023-03-14T17:05:22;5.70;99.90
13610;DHT22;6876;50.788;4.940;2023-03-14T17:08:09;5.60;99.90
13610;DHT22;6876;50.788;4.940;2023-03-14T17:10:57;5.70;99.90
13610;DHT22;6876;50.788;4.940;2023-03-14T17:13:44;5.70;99.90
13610;DHT22;6876;50.788;4.940;2023-03-14T17:16:31;5.60;99.90
13610;DHT22;6876;50.788;4.940;2023-03-14T17:19:19;5.60;99.90
13610;DHT22;6876;50.788;4.940;2023-03-14T17:22:08;5.60;99.90
13610;DHT22;6876;50.788;4.940;2023-03-14T17:24:55;5.50;99.90
13610;DHT22;6876;50.788;4.940;2023-03-14T17:27:42;5.70;99.90
13610;DHT22;6876;50.788;4.940;2023-03-14T17:30:30;5.50;99.90
13610;DHT22;6876;50.788;4.940;2023-03-14T17:33:17;5.50;99.90
13610;DHT22;6876;50.788;4.940;2023-03-14T17:36:05;5.40;99.90
13610;DHT22;6876;50.788;4.940;2023-03-14T17:38:54;5.40;99.90
13610;DHT22;6876;50.788;4.940;2023-03-14T17:41:45;5.40;99.90
13610;DHT22;6876;50.788;4.940;2023-03-14T17:44:33;5.40;99.90
13610;DHT22;6876;50.788;4.940;2023-03-14T17:47:20;5.40;99.90
13610;DHT22;6876;50.788;4.940;2023-03-14T17:50:09;5.30;99.90
13610;DHT22;6876;50.788;4.940;2023-03-14T17:52:57;5.30;99.90
13610;DHT22;6876;50.788;4.940;2023-03-14T17:55:46;5.30;99.90
13610;DHT22;6876;50.788;4.940;2023-03-14T17:58:34;5.20;1.00
13610;DHT22;6876;50.788;4.940;2023-03-14T18:01:23;5.10;99.90
13610;DHT22;6876;50.788;4.940;2023-03-14T18:04:10;5.10;99.90
13610;DHT22;6876;50.788;4.940;2023-03-14T18:06:58;5.10;99.90
13610;DHT22;6876;50.788;4.940;2023-03-14T18:09:46;5.00;99.90
13610;DHT22;6876;50.788;4.940;2023-03-14T18:12:36;5.00;99.90
13610;DHT22;6876;50.788;4.940;2023-03-14T18:15:23;4.90;99.90
13610;DHT22;6876;50.788;4.940;2023-03-14T18:18:10;4.90;99.90
13610;DHT22;6876;50.788;4.940;2023-03-14T18:20:58;4.90;99.90
13610;DHT22;6876;50.788;4.940;2023-03-14T18:23:46;5.00;99.90